Time;durP1;ratioP1;P1;durP2;ratioP2;P2;SDS_P1;SDS_P2;PMS_P1;PMS_P2;Temp;Humidity;BMP_temperature;BMP_pressure;BME280_temperature;BME280_humidity;BME280_pressure;Samples;Min_cycle;Max_cycle;Signal;HPM_P1;HPM_P2
2022/10/06 00:00:31;;;;;;;1.33;1.23;;;;;;;9.71;100.00;95654.19;5072016;28;20250;-62
2022/10/06 00:02:56;;;;;;;1.80;1.23;;;;;;;9.88;99.46;95664.88;5053874;28;20193;-60
2022/10/06 00:05:22;;;;;;;1.43;1.33;;;;;;;9.81;99.64;95668.75;5071842;28;20255;-61
2022/10/06 00:07:48;;;;;;;3.10;1.63;;;;;;;9.74;99.06;95662.41;5072460;28;20192;-61
2022/10/06 00:10:13;;;;;;;1.80;1.50;;;;;;;9.76;99.09;95662.31;5071841;28;20247;-59
2022/10/06 00:12:44;;;;;;;2.43;1.13;;;;;;;9.64;100.00;95647.88;5071767;28;20604;-59
2022/10/06 00:15:12;;;;;;;2.73;1.40;;;;;;;9.61;99.80;95654.00;5071772;28;20207;-60
2022/10/06 00:17:38;;;;;;;1.90;1.50;;;;;;;9.59;99.84;95652.47;5071450;28;20246;-59
2022/10/06 00:20:05;;;;;;;4.50;1.30;;;;;;;9.72;99.76;95661.72;5071788;28;20212;-59
2022/10/06 00:22:36;;;;;;;1.83;1.27;;;;;;;9.68;99.74;95665.38;5071220;28;20200;-59
2022/10/06 00:25:03;;;;;;;2.27;1.20;;;;;;;9.63;99.67;95661.50;5071378;28;20196;-63
2022/10/06 00:27:37;;;;;;;1.90;1.27;;;;;;;9.64;100.00;95663.13;5071430;28;20185;-59
2022/10/06 00:30:04;;;;;;;1.47;1.37;;;;;;;9.58;100.00;95644.03;5071227;28;20626;-59
2022/10/06 00:32:30;;;;;;;3.63;2.00;;;;;;;9.63;100.00;95647.09;5071268;28;20193;-60
2022/10/06 00:34:57;;;;;;;1.47;1.17;;;;;;;9.78;100.00;95650.34;5071018;28;20208;-61
2022/10/06 00:37:23;;;;;;;1.53;1.43;;;;;;;9.92;99.71;95670.56;5071437;28;20662;-61
2022/10/06 00:39:49;;;;;;;2.00;1.60;;;;;;;9.94;99.72;95654.31;5053274;28;20216;-58
2022/10/06 00:42:26;;;;;;;2.20;1.50;;;;;;;9.94;100.00;95651.75;5071135;28;20291;-61
2022/10/06 00:44:52;;;;;;;2.63;1.60;;;;;;;9.83;100.00;95640.69;5071198;28;20560;-58
2022/10/06 00:47:20;;;;;;;2.33;1.80;;;;;;;9.89;100.00;95635.22;5053160;28;20236;-59
2022/10/06 00:49:46;;;;;;;3.60;2.30;;;;;;;9.87;100.00;95630.25;5070933;28;20250;-60
2022/10/06 00:52:17;;;;;;;2.30;2.07;;;;;;;9.84;100.00;95629.63;5070696;28;20196;-60
2022/10/06 00:54:43;;;;;;;5.20;2.20;;;;;;;9.81;100.00;95627.28;5052890;28;20246;-59
2022/10/06 00:57:09;;;;;;;2.43;2.03;;;;;;;9.83;100.00;95622.94;5069772;28;20276;-58
2022/10/06 00:59:37;;;;;;;4.87;2.37;;;;;;;9.78;100.00;95622.41;5069534;28;20235;-58
2022/10/06 01:02:21;;;;;;;4.40;2.40;;;;;;;9.46;100.00;95608.47;5070635;28;20200;-59
2022/10/06 01:04:51;;;;;;;4.17;1.90;;;;;;;9.35;100.00;95606.66;5052400;28;20706;-60
2022/10/06 01:07:20;;;;;;;2.77;2.10;;;;;;;9.33;100.00;95608.47;5070804;28;20580;-60
2022/10/06 01:09:46;;;;;;;3.60;2.03;;;;;;;9.30;100.00;95603.56;5051545;28;20460;-59
2022/10/06 01:12:12;;;;;;;4.13;2.47;;;;;;;9.35;100.00;95608.38;5070220;28;20204;-61
2022/10/06 01:14:39;;;;;;;4.20;1.87;;;;;;;9.34;100.00;95610.09;5070783;28;20212;-61
2022/10/06 01:17:34;;;;;;;4.87;1.77;;;;;;;9.32;100.00;95612.72;5052833;28;20201;-59
2022/10/06 01:20:07;;;;;;;3.83;1.73;;;;;;;9.16;100.00;95601.13;5059365;28;20228;-58
2022/10/06 01:22:39;;;;;;;2.87;1.70;;;;;;;9.01;100.00;95581.78;5070974;28;20272;-58
2022/10/06 01:25:07;;;;;;;2.10;1.90;;;;;;;9.18;100.00;95589.97;5052708;28;20759;-62
2022/10/06 01:27:36;;;;;;;1.90;1.80;;;;;;;9.22;100.00;95600.72;5070272;28;20184;-61
2022/10/06 01:30:03;;;;;;;2.53;1.80;;;;;;;9.21;100.00;95594.03;5070503;28;20568;-58
2022/10/06 01:32:34;;;;;;;4.00;1.83;;;;;;;9.29;100.00;95614.66;5070647;28;20685;-62
2022/10/06 01:34:59;;;;;;;2.67;1.50;;;;;;;9.20;100.00;95618.59;5070460;28;20204;-61
2022/10/06 01:37:25;;;;;;;6.37;1.60;;;;;;;9.08;100.00;95628.69;5070661;28;20200;-58
2022/10/06 01:39:50;;;;;;;1.50;1.40;;;;;;;8.98;100.00;95618.31;5070633;28;20323;-59
2022/10/06 01:42:15;;;;;;;1.57;1.13;;;;;;;8.92;100.00;95610.28;5070477;28;20197;-59
2022/10/06 01:44:41;;;;;;;4.10;1.40;;;;;;;8.68;100.00;95597.41;5052370;28;20295;-62
2022/10/06 01:47:07;;;;;;;1.97;1.30;;;;;;;8.53;100.00;95595.00;5052501;28;20204;-59
2022/10/06 01:49:33;;;;;;;1.23;1.13;;;;;;;8.32;100.00;95585.28;5070160;28;20308;-61
2022/10/06 01:52:00;;;;;;;2.13;1.37;;;;;;;8.39;100.00;95595.84;5052098;28;20216;-62
2022/10/06 01:54:26;;;;;;;1.97;1.50;;;;;;;8.45;100.00;95596.31;5070173;28;20278;-59
2022/10/06 01:56:51;;;;;;;4.33;1.37;;;;;;;8.46;100.00;95599.66;5052141;28;20197;-59
2022/10/06 01:59:17;;;;;;;2.97;1.60;;;;;;;8.51;100.00;95601.88;5069972;28;20583;-63
2022/10/06 02:01:42;;;;;;;2.10;1.87;;;;;;;8.54;100.00;95599.19;5070084;28;20216;-61
2022/10/06 02:04:08;;;;;;;1.40;1.30;;;;;;;8.51;100.00;95607.78;5069998;28;20213;-62
2022/10/06 02:06:34;;;;;;;3.40;1.43;;;;;;;8.60;100.00;95611.47;5073608;28;20216;-62
2022/10/06 02:09:00;;;;;;;4.33;1.73;;;;;;;8.57;100.00;95615.00;5073643;28;20208;-60
2022/10/06 02:11:25;;;;;;;2.97;1.40;;;;;;;8.59;100.00;95609.81;5055674;28;20246;-62
2022/10/06 02:13:51;;;;;;;1.57;1.43;;;;;;;8.74;100.00;95613.97;5055367;28;20247;-60
2022/10/06 02:16:17;;;;;;;1.20;1.10;;;;;;;8.74;100.00;95634.25;5073650;28;20189;-59
2022/10/06 02:18:43;;;;;;;3.67;1.60;;;;;;;8.58;100.00;95615.81;5073182;28;20637;-60
2022/10/06 02:21:18;;;;;;;3.17;1.50;;;;;;;8.47;100.00;95606.34;5073288;28;20192;-59
2022/10/06 02:23:44;;;;;;;2.60;1.70;;;;;;;8.41;100.00;95607.53;5073028;28;20216;-60
2022/10/06 02:26:10;;;;;;;2.20;1.53;;;;;;;8.34;100.00;95598.66;5055661;28;20185;-60
2022/10/06 02:28:36;;;;;;;3.53;2.00;;;;;;;8.30;100.00;95594.69;5055044;28;20666;-61
2022/10/06 02:31:07;;;;;;;2.37;1.50;;;;;;;8.27;100.00;95599.13;5055208;28;20348;-61
2022/10/06 02:33:32;;;;;;;1.90;1.60;;;;;;;8.20;100.00;95596.13;5073075;28;20679;-62
2022/10/06 02:35:58;;;;;;;2.60;2.00;;;;;;;8.27;100.00;95599.94;5055240;28;20235;-59
2022/10/06 02:38:26;;;;;;;2.80;1.30;;;;;;;8.28;100.00;95601.56;5073205;28;20677;-59
2022/10/06 02:40:52;;;;;;;3.03;2.07;;;;;;;8.22;100.00;95596.84;5073156;28;20192;-59
2022/10/06 02:43:18;;;;;;;2.70;1.50;;;;;;;8.24;100.00;95604.38;5072971;28;20284;-58
2022/10/06 02:45:51;;;;;;;3.13;2.00;;;;;;;8.27;100.00;95607.56;5072817;28;20265;-59
2022/10/06 02:48:17;;;;;;;2.63;1.70;;;;;;;8.22;100.00;95601.91;5073059;28;20203;-61
2022/10/06 02:50:44;;;;;;;5.10;1.87;;;;;;;8.42;100.00;95603.28;5073080;28;20299;-59
2022/10/06 02:53:09;;;;;;;2.40;1.73;;;;;;;8.56;100.00;95604.97;5073045;28;20271;-58
2022/10/06 02:55:35;;;;;;;4.67;1.93;;;;;;;8.50;100.00;95597.75;5073138;28;20300;-58
2022/10/06 02:58:02;;;;;;;2.30;1.57;;;;;;;8.72;100.00;95620.84;5072879;28;20181;-60
2022/10/06 03:00:28;;;;;;;2.60;1.70;;;;;;;8.63;100.00;95637.44;5072667;28;20208;-59
2022/10/06 03:02:53;;;;;;;1.77;1.67;;;;;;;8.46;100.00;95615.66;5072696;28;20204;-61
2022/10/06 03:05:19;;;;;;;1.60;1.50;;;;;;;8.40;100.00;95630.44;5054515;28;20223;-61
2022/10/06 03:07:45;;;;;;;5.47;1.67;;;;;;;8.28;100.00;95623.56;5072486;28;20199;-61
2022/10/06 03:10:10;;;;;;;1.83;1.53;;;;;;;8.03;100.00;95600.56;5072429;28;20682;-61
2022/10/06 03:12:36;;;;;;;2.70;1.67;;;;;;;7.82;100.00;95611.97;5072573;28;20675;-60
2022/10/06 03:15:02;;;;;;;3.27;1.83;;;;;;;7.81;100.00;95612.88;5072062;28;20205;-59
2022/10/06 03:17:28;;;;;;;2.23;1.63;;;;;;;7.81;100.00;95612.88;5054502;28;20197;-62
2022/10/06 03:19:55;;;;;;;1.67;1.57;;;;;;;7.73;100.00;95608.25;5054447;28;20694;-62
2022/10/06 03:22:21;;;;;;;3.90;1.87;;;;;;;7.62;100.00;95608.06;5072605;28;20181;-61
2022/10/06 03:24:46;;;;;;;1.80;1.57;;;;;;;7.52;100.00;95605.25;5072349;28;20267;-59
2022/10/06 03:27:11;;;;;;;3.23;1.83;;;;;;;7.53;100.00;95606.88;5072144;28;20279;-60
2022/10/06 03:29:37;;;;;;;4.13;2.07;;;;;;;7.48;100.00;95602.97;5072014;28;20270;-59
2022/10/06 03:32:02;;;;;;;1.80;1.70;;;;;;;7.56;100.00;95598.28;5072474;28;20196;-59
2022/10/06 03:34:36;;;;;;;2.30;1.70;;;;;;;7.59;100.00;95603.97;5072012;28;20263;-59
2022/10/06 03:37:02;;;;;;;3.17;1.90;;;;;;;7.51;100.00;95607.88;5072048;28;20184;-59
2022/10/06 03:39:27;;;;;;;2.40;1.90;;;;;;;7.50;100.00;95601.19;5072091;28;20240;-59
2022/10/06 03:41:52;;;;;;;4.13;1.97;;;;;;;7.41;100.00;95594.91;5071973;28;20240;-59
2022/10/06 03:44:20;;;;;;;4.93;1.70;;;;;;;7.34;100.00;95597.91;5071933;28;20251;-58
2022/10/06 03:46:46;;;;;;;1.70;1.60;;;;;;;7.52;100.00;95601.91;5071982;28;20330;-58
2022/10/06 03:49:11;;;;;;;3.10;1.50;;;;;;;7.61;100.00;95603.91;5037240;28;20204;-59
2022/10/06 03:51:39;;;;;;;3.37;1.70;;;;;;;7.73;100.00;95598.16;5071962;28;20670;-61
2022/10/06 03:54:06;;;;;;;2.17;1.67;;;;;;;7.84;100.00;95595.78;5071647;28;20707;-61
2022/10/06 03:56:35;;;;;;;1.93;1.50;;;;;;;7.77;100.00;95599.59;5053951;28;20196;-61
2022/10/06 03:59:04;;;;;;;2.17;2.00;;;;;;;7.57;100.00;95597.41;5071510;28;20326;-60
2022/10/06 04:01:35;;;;;;;3.53;1.70;;;;;;;7.37;100.00;95597.72;5071588;28;20204;-58
2022/10/06 04:04:01;;;;;;;4.80;1.90;;;;;;;7.23;100.00;95600.22;5083678;22;20630;-59
2022/10/06 04:06:30;;;;;;;1.73;1.63;;;;;;;7.15;100.00;95598.13;5091811;28;20625;-62
2022/10/06 04:08:55;;;;;;;4.83;1.90;;;;;;;7.23;100.00;95595.19;5074010;28;20211;-61
2022/10/06 04:11:26;;;;;;;3.73;2.10;;;;;;;7.25;100.00;95595.91;5073599;28;20583;-62
2022/10/06 04:13:55;;;;;;;4.73;2.30;;;;;;;7.25;100.00;95599.22;5091636;28;20232;-62
2022/10/06 04:16:24;;;;;;;1.67;1.57;;;;;;;7.20;100.00;95605.44;5091893;28;20196;-61
2022/10/06 04:18:54;;;;;;;1.90;1.40;;;;;;;7.12;100.00;95598.31;5091713;28;20233;-60
2022/10/06 04:21:20;;;;;;;2.87;2.10;;;;;;;7.14;100.00;95610.84;5091644;28;20194;-61
2022/10/06 04:23:46;;;;;;;2.87;2.17;;;;;;;7.17;100.00;95598.06;5091577;28;20208;-62
2022/10/06 04:26:17;;;;;;;3.37;2.03;;;;;;;7.26;100.00;95602.56;5091570;28;20191;-62
2022/10/06 04:28:43;;;;;;;2.20;1.93;;;;;;;7.30;100.00;95604.84;5090766;28;20284;-62
2022/10/06 04:31:16;;;;;;;2.60;2.07;;;;;;;7.42;100.00;95613.44;5091400;28;20609;-59
2022/10/06 04:33:44;;;;;;;5.33;3.03;;;;;;;7.54;100.00;95612.75;5099051;22;20224;-61
2022/10/06 04:36:13;;;;;;;5.57;2.87;;;;;;;7.53;100.00;95608.59;5091418;28;20672;-61
2022/10/06 04:38:38;;;;;;;3.00;2.30;;;;;;;7.77;100.00;95614.78;5073302;28;20188;-62
2022/10/06 04:41:09;;;;;;;6.00;2.23;;;;;;;7.83;100.00;95614.41;5091247;28;20223;-60
2022/10/06 04:43:34;;;;;;;4.87;2.27;;;;;;;7.81;100.00;95623.81;5091251;28;20192;-62
2022/10/06 04:46:00;;;;;;;5.73;2.70;;;;;;;7.91;100.00;95632.50;5091452;28;20552;-62
2022/10/06 04:48:27;;;;;;;2.60;2.23;;;;;;;8.01;100.00;95647.97;5091430;28;20195;-59
2022/10/06 04:51:01;;;;;;;7.03;2.70;;;;;;;8.11;100.00;95649.88;5072853;28;20207;-59
2022/10/06 04:53:28;;;;;;;4.97;2.67;;;;;;;7.99;100.00;95643.00;5091261;28;20184;-59
2022/10/06 04:56:03;;;;;;;7.20;2.90;;;;;;;8.06;100.00;95645.97;5091122;28;20218;-59
2022/10/06 04:58:40;;;;;;;5.03;2.37;;;;;;;7.99;100.00;95645.53;5091033;28;20199;-59
2022/10/06 05:01:20;;;;;;;7.10;2.20;;;;;;;8.12;100.00;95643.88;5090964;28;20212;-59
2022/10/06 05:03:50;;;;;;;3.00;2.33;;;;;;;8.00;100.00;95624.34;5091204;28;20230;-58
2022/10/06 05:06:19;;;;;;;3.50;2.60;;;;;;;8.11;100.00;95634.66;5090922;28;20246;-58
2022/10/06 05:08:49;;;;;;;4.87;1.97;;;;;;;8.16;100.00;95652.94;5091087;28;20200;-60
2022/10/06 05:11:15;;;;;;;3.60;2.13;;;;;;;8.35;100.00;95668.69;5090879;28;20670;-61
2022/10/06 05:13:42;;;;;;;8.30;2.17;;;;;;;8.37;100.00;95664.34;5090753;28;21034;-59
2022/10/06 05:16:11;;;;;;;10.60;1.90;;;;;;;8.54;100.00;95686.16;5090866;28;20188;-60
2022/10/06 05:18:36;;;;;;;2.93;2.17;;;;;;;8.50;100.00;95686.44;5072476;28;20191;-59
2022/10/06 05:21:22;;;;;;;2.90;2.20;;;;;;;8.45;100.00;95661.34;5090824;28;20211;-59
2022/10/06 05:23:48;;;;;;;4.23;2.47;;;;;;;8.45;100.00;95679.09;5072518;28;20208;-62
2022/10/06 05:26:21;;;;;;;3.13;2.60;;;;;;;8.19;100.00;95665.41;5090663;28;20207;-59
2022/10/06 05:28:46;;;;;;;2.73;2.33;;;;;;;7.98;100.00;95638.81;5091040;28;20286;-63
2022/10/06 05:31:17;;;;;;;5.23;2.63;;;;;;;7.99;100.00;95643.00;5090699;28;20295;-59
2022/10/06 05:33:43;;;;;;;7.43;3.80;;;;;;;8.09;100.00;95636.47;5090400;28;20309;-60
2022/10/06 05:36:17;;;;;;;5.23;2.83;;;;;;;8.06;100.00;95649.31;5090614;28;20661;-60
2022/10/06 05:38:43;;;;;;;8.50;3.33;;;;;;;8.07;100.00;95645.88;5073459;28;20220;-59
2022/10/06 05:41:11;;;;;;;4.20;2.93;;;;;;;7.99;100.00;95640.47;5094175;28;20232;-63
2022/10/06 05:43:37;;;;;;;8.63;2.80;;;;;;;7.93;100.00;95633.22;5094131;28;20184;-59
2022/10/06 05:46:05;;;;;;;5.47;3.27;;;;;;;7.90;100.00;95635.13;5075935;28;20199;-58
2022/10/06 05:48:31;;;;;;;5.53;2.60;;;;;;;7.90;100.00;95633.38;5075534;28;20191;-62
2022/10/06 05:51:02;;;;;;;4.80;3.40;;;;;;;7.93;100.00;95630.69;5094012;28;20187;-62
2022/10/06 05:53:29;;;;;;;8.00;3.30;;;;;;;7.87;100.00;95630.22;5094242;28;20188;-63
2022/10/06 05:56:05;;;;;;;5.83;3.67;;;;;;;7.94;100.00;95634.84;5093848;28;20221;-61
2022/10/06 05:58:31;;;;;;;12.00;3.90;;;;;;;7.98;100.00;95633.75;5094116;28;20209;-62
2022/10/06 06:01:08;;;;;;;10.53;4.63;;;;;;;8.12;100.00;95638.81;5093881;28;20216;-61
2022/10/06 06:03:35;;;;;;;11.73;4.07;;;;;;;8.24;100.00;95640.63;5093777;28;20669;-61
2022/10/06 06:06:01;;;;;;;8.00;4.30;;;;;;;8.34;100.00;95636.66;5075384;28;20188;-61
2022/10/06 06:08:26;;;;;;;6.83;4.77;;;;;;;8.51;100.00;95645.78;5093105;28;20184;-62
2022/10/06 06:10:52;;;;;;;9.10;5.20;;;;;;;8.85;100.00;95626.78;5093663;28;20217;-59
2022/10/06 06:13:23;;;;;;;7.63;4.70;;;;;;;9.18;100.00;95644.94;5075359;28;20668;-61
2022/10/06 06:16:22;;;;;;;5.60;3.90;;;;;;;9.18;100.00;95678.75;5092868;28;20189;-60
2022/10/06 06:18:41;;;;;;;8.57;3.97;;;;;;;9.36;100.00;95678.47;5087379;28;20243;-59
2022/10/06 06:21:08;;;;;;;11.23;3.50;;;;;;;9.50;100.00;95698.72;5091074;28;20208;-59
2022/10/06 06:23:37;;;;;;;4.30;3.73;;;;;;;9.52;100.00;95709.59;5090393;28;20199;-60
2022/10/06 06:26:06;;;;;;;5.73;3.30;;;;;;;9.64;100.00;95714.72;5091992;28;20666;-62
2022/10/06 06:28:32;;;;;;;3.03;2.73;;;;;;;9.75;100.00;95737.69;5091869;28;20200;-62
2022/10/06 06:31:03;;;;;;;3.53;2.97;;;;;;;9.73;100.00;95728.56;5091797;28;20625;-62
2022/10/06 06:33:29;;;;;;;5.83;2.33;;;;;;;10.00;100.00;95752.97;5093682;28;20199;-62
2022/10/06 06:35:56;;;;;;;2.40;1.63;;;;;;;10.29;100.00;95784.16;5093565;28;20617;-60
2022/10/06 06:38:21;;;;;;;1.57;1.20;;;;;;;10.18;100.00;95771.31;5093216;28;20195;-62
2022/10/06 06:40:47;;;;;;;4.53;2.63;;;;;;;10.23;100.00;95759.13;5093108;28;20208;-59
2022/10/06 06:43:13;;;;;;;3.63;2.10;;;;;;;10.11;100.00;95765.00;5093217;28;20187;-60
2022/10/06 06:45:38;;;;;;;4.43;2.30;;;;;;;10.11;100.00;95760.75;5093093;28;20720;-60
2022/10/06 06:48:04;;;;;;;3.70;2.10;;;;;;;10.47;100.00;95782.13;5093209;28;20193;-59
2022/10/06 06:50:31;;;;;;;2.50;2.20;;;;;;;10.68;100.00;95785.78;5092276;28;20208;-59
2022/10/06 06:52:56;;;;;;;2.70;1.73;;;;;;;10.76;99.91;95793.72;5074953;28;20192;-60
2022/10/06 06:55:21;;;;;;;5.60;2.37;;;;;;;10.91;100.00;95770.59;5092844;28;20288;-59
2022/10/06 06:57:48;;;;;;;2.57;1.87;;;;;;;10.71;99.35;95785.56;5092831;28;20188;-60
2022/10/06 07:00:15;;;;;;;2.87;2.60;;;;;;;10.95;99.26;95778.81;5091580;28;20208;-61
2022/10/06 07:02:41;;;;;;;3.57;1.80;;;;;;;11.15;95.52;95829.16;5074874;28;20192;-59
2022/10/06 07:05:07;;;;;;;3.00;2.20;;;;;;;11.15;96.82;95796.09;5092875;28;20227;-60
2022/10/06 07:07:32;;;;;;;3.10;2.03;;;;;;;11.37;94.49;95829.31;5092847;28;20597;-60
2022/10/06 07:09:58;;;;;;;2.30;2.10;;;;;;;11.43;94.50;95815.38;5092531;28;20774;-60
2022/10/06 07:12:24;;;;;;;4.57;2.57;;;;;;;11.34;95.85;95788.00;5074705;28;20242;-60
2022/10/06 07:26:03;;;;;;;4.30;2.73;;;;;;;12.45;90.86;95842.84;5090021;28;20237;-59
2022/10/06 07:28:31;;;;;;;6.20;3.00;;;;;;;12.58;88.82;95871.66;5090529;28;20180;-60
2022/10/06 07:31:00;;;;;;;4.97;2.80;;;;;;;12.61;88.28;95863.75;5073886;28;20184;-60
2022/10/06 07:33:31;;;;;;;4.33;3.07;;;;;;;12.68;87.32;95862.41;5092553;28;20226;-59
2022/10/06 07:35:56;;;;;;;7.27;3.33;;;;;;;12.58;89.80;95812.97;5092368;28;20665;-60
2022/10/06 07:38:24;;;;;;;15.73;4.13;;;;;;;12.76;90.53;95801.41;5092500;28;20196;-59
2022/10/06 07:40:57;;;;;;;6.63;4.17;;;;;;;12.99;87.91;95845.63;5092312;28;20204;-59
2022/10/06 07:43:22;;;;;;;9.77;4.30;;;;;;;13.06;86.77;95865.50;5092339;28;20206;-59
2022/10/06 07:45:48;;;;;;;10.50;4.23;;;;;;;13.04;87.84;95829.06;5074023;28;20184;-60
2022/10/06 07:48:22;;;;;;;9.13;4.00;;;;;;;13.32;88.91;95823.47;5091983;28;20195;-60
2022/10/06 07:50:51;;;;;;;12.67;4.47;;;;;;;13.57;87.11;95849.69;5091927;28;20172;-62
2022/10/06 07:53:17;;;;;;;12.17;4.93;;;;;;;13.71;88.30;95821.31;5092074;28;20507;-62
2022/10/06 07:55:45;;;;;;;9.43;4.50;;;;;;;13.91;86.54;95851.22;5090042;28;20697;-61
2022/10/06 07:58:13;;;;;;;9.83;4.40;;;;;;;13.92;87.63;95834.94;5091480;28;20572;-60
2022/10/06 08:00:42;;;;;;;9.93;4.80;;;;;;;14.12;87.68;95835.00;5091956;28;20215;-59
2022/10/06 08:03:09;;;;;;;10.43;4.77;;;;;;;14.49;85.63;95871.28;5072699;28;20192;-63
2022/10/06 08:05:35;;;;;;;12.32;4.82;;;;;;;14.80;83.84;95896.03;5091797;28;20204;-62
2022/10/06 08:08:00;;;;;;;9.10;5.35;;;;;;;14.95;81.27;95940.84;5091932;28;20190;-62
2022/10/06 08:10:26;;;;;;;8.70;5.03;;;;;;;15.13;80.64;95929.09;5091782;28;20207;-62
2022/10/06 08:12:51;;;;;;;10.00;4.50;;;;;;;15.26;80.98;95910.16;5092037;28;20192;-62
2022/10/06 08:15:17;;;;;;;14.93;4.82;;;;;;;15.45;78.39;95951.31;5073629;28;20685;-62
2022/10/06 08:17:43;;;;;;;10.40;4.75;;;;;;;15.61;77.33;95967.84;5073459;28;20654;-62
2022/10/06 08:20:10;;;;;;;11.23;4.55;;;;;;;15.76;76.87;95958.03;5091574;28;20265;-59
2022/10/06 08:22:37;;;;;;;8.70;4.85;;;;;;;16.08;75.88;95978.41;5073488;28;20235;-58
2022/10/06 08:25:03;;;;;;;7.50;4.70;;;;;;;16.27;76.35;95956.16;5090338;28;20208;-60
2022/10/06 08:27:29;;;;;;;8.95;4.45;;;;;;;16.17;75.21;95963.03;5073572;28;20185;-59
2022/10/06 08:29:56;;;;;;;9.45;4.70;;;;;;;16.69;74.86;95967.03;5091675;28;20231;-58
2022/10/06 08:32:22;;;;;;;7.60;4.45;;;;;;;17.03;72.80;95993.16;5091685;28;20337;-62
2022/10/06 08:34:48;;;;;;;9.52;4.55;;;;;;;17.34;71.34;96007.44;5091551;28;20208;-62
2022/10/06 08:37:14;;;;;;;9.52;5.30;;;;;;;17.36;68.45;96052.66;5091349;28;20653;-62
2022/10/06 08:39:41;;;;;;;10.05;4.25;;;;;;;17.47;70.05;95995.91;5073206;28;20215;-62
2022/10/06 08:42:20;;;;;;;10.57;4.50;;;;;;;17.34;67.56;96043.44;5091382;28;20742;-59
2022/10/06 08:44:50;;;;;;;8.13;4.30;;;;;;;17.19;66.33;96055.88;5091362;28;20215;-59
2022/10/06 08:47:18;;;;;;;11.95;5.20;;;;;;;17.32;65.72;96058.19;5091231;28;20630;-59
2022/10/06 08:49:48;;;;;;;8.15;4.43;;;;;;;17.41;64.34;96085.66;5091293;28;20204;-60
2022/10/06 08:52:34;;;;;;;9.98;4.28;;;;;;;17.67;62.55;96117.63;5091284;28;20180;-59
2022/10/06 08:55:03;;;;;;;7.05;4.05;;;;;;;17.84;63.76;96056.91;5090329;28;20246;-59
2022/10/06 08:58:01;;;;;;;9.90;4.70;;;;;;;18.11;63.74;96060.38;5089366;28;20188;-60
2022/10/06 09:00:31;;;;;;;10.95;5.05;;;;;;;18.37;61.93;96096.56;5048601;28;20232;-58
2022/10/06 09:02:58;;;;;;;8.00;4.40;;;;;;;18.34;61.55;96087.34;5091299;28;20619;-61
2022/10/06 09:05:28;;;;;;;7.38;5.05;;;;;;;18.72;62.41;96070.13;5091032;28;20200;-59
2022/10/06 09:08:18;;;;;;;7.55;4.75;;;;;;;18.62;63.78;96028.16;5091183;28;20188;-60
2022/10/06 09:11:22;;;;;;;7.93;3.63;;;;;;;18.36;59.03;96142.09;5090968;28;20203;-62
2022/10/06 09:13:58;;;;;;;7.30;3.75;;;;;;;19.25;60.97;96079.53;5021278;28;20537;-59
2022/10/06 09:16:34;;;;;;;4.40;3.30;;;;;;;19.60;56.60;96174.19;5097772;28;20192;-59
2022/10/06 09:19:22;;;;;;;5.32;3.47;;;;;;;20.06;56.96;96153.25;5097985;28;20302;-63
2022/10/06 09:21:52;;;;;;;5.85;3.30;;;;;;;19.91;53.18;96227.06;5097706;28;20267;-60
2022/10/06 09:24:33;;;;;;;5.97;2.97;;;;;;;19.73;55.53;96140.28;5096457;28;20291;-62
2022/10/06 09:27:11;;;;;;;6.80;3.55;;;;;;;20.34;55.36;96150.59;5077999;28;20241;-61
2022/10/06 09:29:36;;;;;;;8.35;3.53;;;;;;;20.62;55.52;96134.75;5079413;28;20239;-61
2022/10/06 09:32:02;;;;;;;5.60;3.22;;;;;;;19.78;53.45;96174.19;5097618;28;20210;-62
2022/10/06 09:34:37;;;;;;;7.75;3.15;;;;;;;19.73;55.58;96104.97;5079191;28;20208;-60
2022/10/06 09:37:09;;;;;;;7.68;3.17;;;;;;;20.58;53.14;96174.75;5097400;28;20180;-60
2022/10/06 09:39:40;;;;;;;6.95;3.17;;;;;;;21.14;54.37;96126.84;5097243;28;20243;-59
2022/10/06 09:42:09;;;;;;;6.20;2.63;;;;;;;21.39;52.03;96195.81;5097303;28;20646;-62
2022/10/06 09:44:52;;;;;;;7.78;2.75;;;;;;;21.34;50.61;96213.56;5097637;28;20208;-63
2022/10/06 09:47:38;;;;;;;8.52;3.45;;;;;;;21.75;50.84;96202.34;5097355;28;20214;-63
2022/10/06 09:50:15;;;;;;;8.80;3.15;;;;;;;21.87;51.25;96176.97;5097311;28;20199;-63
2022/10/06 09:53:20;;;;;;;9.93;3.78;;;;;;;21.62;50.89;96176.94;5095307;28;20419;-62
2022/10/06 09:55:50;;;;;;;7.60;4.03;;;;;;;22.26;49.61;96211.63;5095648;28;20207;-61
2022/10/06 09:58:36;;;;;;;8.18;3.72;;;;;;;21.64;47.93;96236.31;5096836;28;20669;-61
2022/10/06 10:01:10;;;;;;;7.40;3.20;;;;;;;21.22;48.99;96156.16;5079026;28;20387;-60
2022/10/06 10:04:11;;;;;;;6.60;3.70;;;;;;;21.45;47.75;96063.97;5096988;28;20180;-62
2022/10/06 10:06:37;;;;;;;8.30;4.00;;;;;;;21.81;47.78;96035.16;5097213;28;20184;-60
2022/10/06 10:09:16;;;;;;;8.02;3.25;;;;;;;21.48;48.36;96011.91;5096949;28;20602;-60
2022/10/06 10:14:25;;;;;;;4.70;3.22;;;;;;;21.27;47.58;95990.09;5097140;28;20679;-62
2022/10/06 10:16:51;;;;;;;6.97;3.53;;;;;;;21.48;47.74;95977.44;5097175;28;20596;-61
2022/10/06 10:19:23;;;;;;;3.90;3.00;;;;;;;21.74;46.63;96003.94;5097262;28;20299;-64
2022/10/06 10:21:51;;;;;;;7.38;3.20;;;;;;;21.94;45.82;96001.84;5079285;28;20188;-61
2022/10/06 10:24:29;;;;;;;10.98;3.42;;;;;;;22.55;45.23;96012.25;5078951;28;20211;-62
2022/10/06 10:27:30;;;;;;;4.68;2.80;;;;;;;22.95;43.52;96034.59;5092902;28;20573;-60
2022/10/06 10:30:00;;;;;;;5.85;3.05;;;;;;;22.92;43.92;96002.03;5080249;28;20310;-61
2022/10/06 10:32:37;;;;;;;6.20;3.22;;;;;;;23.10;43.51;96004.34;5093388;28;20191;-61
2022/10/06 10:35:29;;;;;;;6.07;3.55;;;;;;;23.22;42.79;96014.13;5093324;28;20212;-60
2022/10/06 10:38:03;;;;;;;6.75;3.75;;;;;;;22.80;42.33;96008.59;5093592;28;20185;-60
2022/10/06 10:40:44;;;;;;;13.05;3.97;;;;;;;22.55;42.85;95989.75;5093301;28;20208;-64
2022/10/06 10:43:17;;;;;;;5.15;3.13;;;;;;;22.94;41.56;96010.44;5093730;28;20184;-63
2022/10/06 10:45:49;;;;;;;12.35;3.85;;;;;;;22.98;42.09;95990.16;5092787;28;20678;-61
2022/10/06 10:48:21;;;;;;;6.15;3.58;;;;;;;23.04;40.99;96000.66;5093754;28;20196;-66
2022/10/06 10:50:54;;;;;;;6.93;3.25;;;;;;;22.56;37.59;96082.09;5093492;28;20176;-61
2022/10/06 10:53:31;;;;;;;8.55;3.75;;;;;;;22.18;38.55;96038.03;5093535;28;20232;-61
2022/10/06 10:55:58;;;;;;;5.15;3.17;;;;;;;22.46;39.05;96001.13;5093301;28;20606;-61
2022/10/06 10:58:39;;;;;;;7.80;2.95;;;;;;;23.07;38.83;95999.47;5093128;28;20184;-62
2022/10/06 11:01:29;;;;;;;3.90;3.17;;;;;;;22.86;41.21;95940.47;5074849;28;20727;-62
2022/10/06 11:03:57;;;;;;;5.15;3.25;;;;;;;23.28;40.66;95963.31;5093442;28;20256;-60
2022/10/06 11:06:45;;;;;;;5.90;3.25;;;;;;;23.40;41.19;95932.56;5092876;28;20192;-60
2022/10/06 11:09:17;;;;;;;4.85;3.03;;;;;;;23.79;40.11;95964.31;5093358;28;20212;-59
2022/10/06 11:11:49;;;;;;;9.02;3.50;;;;;;;23.65;38.42;95993.69;5092909;28;20192;-63
2022/10/06 11:14:24;;;;;;;6.40;2.85;;;;;;;24.14;38.25;95980.00;5093320;28;20212;-64
2022/10/06 11:17:02;;;;;;;5.18;3.40;;;;;;;24.37;38.41;95972.09;5074557;28;20194;-60
2022/10/06 11:19:54;;;;;;;7.07;3.03;;;;;;;24.35;36.93;95994.06;5091959;28;20219;-61
2022/10/06 11:22:43;;;;;;;8.15;3.08;;;;;;;24.60;35.32;96030.00;5092700;28;20180;-59
2022/10/06 11:25:26;;;;;;;7.15;3.25;;;;;;;24.30;37.05;95960.78;5091057;28;20207;-60
2022/10/06 11:27:57;;;;;;;4.50;2.45;;;;;;;24.55;39.05;95911.88;5090956;28;20184;-60
2022/10/06 11:30:26;;;;;;;4.90;2.30;;;;;;;24.70;38.89;95910.03;5092363;28;20204;-60
2022/10/06 11:33:00;;;;;;;4.40;2.45;;;;;;;24.77;35.28;95989.78;5092299;28;20195;-62
2022/10/06 11:35:28;;;;;;;3.30;2.55;;;;;;;24.39;35.11;95987.50;5092416;28;20208;-60
2022/10/06 11:38:12;;;;;;;2.95;2.65;;;;;;;23.96;33.99;95991.72;5074284;28;20192;-63
2022/10/06 11:40:55;;;;;;;6.25;2.35;;;;;;;23.73;34.27;95939.06;5092181;28;20246;-60
2022/10/06 11:43:31;;;;;;;6.03;2.53;;;;;;;23.92;35.58;95896.91;5092499;28;20188;-62
2022/10/06 11:46:15;;;;;;;2.88;2.03;;;;;;;24.06;34.49;95915.13;5074329;28;20187;-61
2022/10/06 11:48:41;;;;;;;4.85;2.28;;;;;;;24.33;34.11;95916.25;5092695;28;20263;-60
2022/10/06 11:51:20;;;;;;;5.65;2.05;;;;;;;24.28;33.75;95923.78;5092301;28;20183;-61
2022/10/06 11:53:46;;;;;;;5.38;1.98;;;;;;;24.60;33.15;95925.94;5073178;28;20211;-61
2022/10/06 11:56:17;;;;;;;2.35;1.95;;;;;;;23.87;31.95;95943.44;5092331;28;20742;-64
2022/10/06 11:58:55;;;;;;;2.85;1.92;;;;;;;23.96;31.75;95939.75;5092268;28;20216;-63